Tuesday, December 18, 2018, 4:14 PM EST
Back to Local

KNEL, Lakehurst Naval Air Station

Location: Lakehurst, NJ, United States Lat: 40.033
Local Time: 4:14 PM EST (21:14 GMT) Lon: -74.317
Time Zone: US/Eastern Elev: 101 ft

Show me the last for .
Show Decoded

2018-12-18 16:00 METAR KNEL 182100Z AUTO 32007KT 280V350 10SM CLR 03/M08 A3009 RMK AO2 SLP189
                 6//// T00331083 53011 PNO $ =
2018-12-18 15:00 METAR KNEL 182000Z 32008KT 290V350 10SM CLR 04/M08 A3008 RMK AO2 SLP183
                 T00391083 PNO $ =
2018-12-18 14:00 METAR KNEL 181900Z 31007G17KT 290V360 10SM CLR 04/M08 A3005 RMK AO2 SLP176
                 T00441078 PNO $ =
2018-12-18 13:00 METAR KNEL 181800Z 32009G19KT 10SM CLR 04/M08 A3005 RMK AO2 SNB1706E1710 SLP174
                 6//// T00391083 10039 20011 50006 PNO $ =
2018-12-18 12:00 METAR KNEL 181700Z 30019G24KT 10SM CLR 03/M08 A3004 RMK AO2 SLP172 T00331083 PNO
                 $ =
2018-12-18 11:00 METAR KNEL 181600Z 31009G21KT 10SM CLR 03/M09 A3005 RMK AO2 PK WND 30027/1517
                 SLP173 T00281089 PNO $ =
2018-12-18 10:00 METAR KNEL 181500Z 33015G26KT 10SM CLR 02/M09 A3004 RMK AO2 PK WND 29026/1451
                 SLP171 6//// T00221094 52031 PNO $ =
2018-12-18 09:00 METAR KNEL 181400Z VRB06G18KT 10SM CLR 02/M08 A3003 RMK AO2 SLP166 T00221083 PNO
                 $ =
2018-12-18 08:00 METAR KNEL 181300Z 31007G17KT 10SM CLR 01/M08 A3000 RMK AO2 SLP156 T00111083 PNO
                 $ =
2018-12-18 07:00 METAR KNEL 181200Z AUTO 32009G15KT 10SM CLR 01/M08 A2997 RMK AO2 SLP146 6////
                 7//// T00111083 10056 20011 51030 PNO $ =
2018-12-18 06:00 METAR KNEL 181100Z AUTO 32009G19KT 280V350 10SM CLR 02/M08 A2993 RMK AO2 SLP135
                 T00221083 PNO $ =
2018-12-18 05:00 METAR KNEL 181000Z AUTO 31011G24KT 280V340 CLR 03/M08 A2990 RMK AO2 PK WND
                 32026/0922 SLP125 T00281078 PNO $ =
2018-12-18 04:00 METAR KNEL 180900Z AUTO 32008G15KT 300V360 FEW050 03/M06 A2988 RMK AO2 SLP116
                 6//// T00331056 53009 PNO $ =
2018-12-18 03:00 METAR KNEL 180800Z AUTO 30010G16KT OVC055 04/M05 A2984 RMK AO2 SLP104 T00441050
                 PNO $ =
2018-12-18 02:00 METAR KNEL 180700Z AUTO 30010G18KT 250V320 OVC055 05/M06 A2983 RMK AO2 SLP100
                 T00501056 PNO $ =
2018-12-18 01:00 METAR KNEL 180600Z AUTO 30010G18KT OVC055 06/M04 A2982 RMK AO2 SLP095 6////
                 T00561044 10067 20056 55000 PNO $ =
2018-12-18 00:00 METAR KNEL 180500Z AUTO 31012G22KT 10SM OVC055 06/M04 A2982 RMK AO2 SLP096
                 T00561039 400560056 PNO $ =
2018-12-17 23:00 METAR KNEL 180400Z 30015G24KT 10SM OVC060 06/M03 A2981 RMK AO2 SLP093 T00561028
                 PNO $ =
2018-12-17 22:00 METAR KNEL 180300Z 29015G22KT 10SM OVC055 06/M03 A2982 RMK AO2 SLP097 6////
                 T00611033 51011 PNO $ =
2018-12-17 21:00 METAR KNEL 180200Z 29009G16KT 10SM OVC055 06/M03 A2982 RMK AO2 RAE0105 SLP096
                 T00611028 PNO $ =
2018-12-17 20:00 METAR KNEL 180100Z 30011G25KT 10SM -RA OVC050 07/M03 A2981 RMK AO2 PK WND
                 30030/0039 RAB0056 SLP095 T00671033 PNO $ =
2018-12-17 19:00 METAR KNEL 180000Z 31009G22KT 10SM OVC055 07/M03 A2981 RMK AO2 SLP092 6////
                 T00671033 10094 20067 53023 PNO $ =
2018-12-17 18:00 METAR KNEL 172300Z 31007KT 10SM OVC050 07/M02 A2979 RMK AO2 SLP085 T00721017 PNO
                 $ =
2018-12-17 17:00 METAR KNEL 172200Z 30006KT 10SM OVC060 07/M01 A2976 RMK AO2 SLP077 T00721006 PNO
                 $ =

Support USWX by starting your Amazon purchase here.